VLG24VC LEMG-LEBL
Flight info
| Callsign | VLG24VC |
|---|---|
| Flight time | N/A |
| Altitude | 32000 |
| Route | RIXUR M445 PEPAS DCT ARPEX M445 BEGOX N860 VLC L34 CASIM N608 MATEX |
| Aircraft | A320/M-SDE3FGHIRWY/LB1 |
Departure
| Time | 2026-05-04 18:14 |
|---|---|
| Airport | Málaga-Costa del Sol Airport (LEMG) |
Arrival
| Time | N/A |
|---|---|
| Airport | Josep Tarradellas Barcelona-El Prat Airport (LEBL) |
| Time | Latitude | Longitude | Altitude | Speed | Heading |
|---|---|---|---|---|---|
| 2026-05-04 17:59 | 36.67737 | -4.49575 | 42 ft | 0 kts | 41° |
| 2026-05-04 18:05 | 36.67726 | -4.49587 | 42 ft | 2 kts | 47° |
| 2026-05-04 18:05 | 36.67716 | -4.49603 | 41 ft | 2 kts | 54° |
| 2026-05-04 18:05 | 36.67707 | -4.49620 | 42 ft | 2 kts | 68° |
| 2026-05-04 18:05 | 36.67702 | -4.49640 | 40 ft | 2 kts | 92° |
| 2026-05-04 18:06 | 36.67713 | -4.49675 | 40 ft | 1 kts | 131° |
| 2026-05-04 18:06 | 36.67715 | -4.49679 | 41 ft | 0 kts | 132° |
| 2026-05-04 18:08 | 36.67715 | -4.49678 | 40 ft | 1 kts | 132° |
| 2026-05-04 18:08 | 36.67662 | -4.49612 | 42 ft | 17 kts | 143° |
| 2026-05-04 18:09 | 36.67564 | -4.49668 | 42 ft | 5 kts | 224° |
| 2026-05-04 18:09 | 36.67588 | -4.49757 | 43 ft | 9 kts | 314° |
| 2026-05-04 18:10 | 36.67649 | -4.49838 | 43 ft | 19 kts | 312° |
| 2026-05-04 18:10 | 36.67736 | -4.49882 | 42 ft | 7 kts | 27° |
| 2026-05-04 18:10 | 36.67798 | -4.49852 | 39 ft | 14 kts | 24° |
| 2026-05-04 18:10 | 36.67942 | -4.49696 | 42 ft | 32 kts | 41° |
| 2026-05-04 18:11 | 36.68093 | -4.49533 | 42 ft | 27 kts | 42° |
| 2026-05-04 18:11 | 36.68228 | -4.49381 | 40 ft | 25 kts | 41° |
| 2026-05-04 18:11 | 36.68250 | -4.49227 | 40 ft | 18 kts | 124° |
| 2026-05-04 18:11 | 36.68205 | -4.49081 | 39 ft | 22 kts | 119° |
| 2026-05-04 18:12 | 36.68132 | -4.48916 | 40 ft | 21 kts | 116° |
| 2026-05-04 18:12 | 36.68070 | -4.48760 | 39 ft | 19 kts | 117° |
| 2026-05-04 18:12 | 36.68007 | -4.48619 | 40 ft | 18 kts | 120° |
| 2026-05-04 18:12 | 36.67937 | -4.48457 | 40 ft | 31 kts | 118° |
| 2026-05-04 18:13 | 36.67840 | -4.48216 | 38 ft | 24 kts | 115° |
| 2026-05-04 18:13 | 36.67846 | -4.48083 | 36 ft | 14 kts | 48° |
| 2026-05-04 18:13 | 36.68054 | -4.48279 | 38 ft | 69 kts | 296° |
| 2026-05-04 18:14 | 36.68377 | -4.49055 | 44 ft | 130 kts | 298° |
| 2026-05-04 18:14 | 36.68877 | -4.50214 | 492 ft | 156 kts | 297° |
| 2026-05-04 18:14 | 36.69394 | -4.51431 | 1390 ft | 155 kts | 298° |
| 2026-05-04 18:15 | 36.70345 | -4.53691 | 2930 ft | 139 kts | 299° |
| 2026-05-04 18:15 | 36.71196 | -4.55760 | 4193 ft | 131 kts | 298° |
| 2026-05-04 18:15 | 36.71644 | -4.56746 | 4711 ft | 136 kts | 314° |
| 2026-05-04 18:16 | 36.72440 | -4.57524 | 4992 ft | 156 kts | 323° |
| 2026-05-04 18:16 | 36.73374 | -4.58355 | 5244 ft | 178 kts | 323° |
| 2026-05-04 18:16 | 36.74454 | -4.59306 | 5477 ft | 201 kts | 327° |
| 2026-05-04 18:17 | 36.77394 | -4.60056 | 6382 ft | 227 kts | 351° |
| 2026-05-04 18:17 | 36.78953 | -4.60436 | 7072 ft | 229 kts | 342° |
| 2026-05-04 18:17 | 36.82175 | -4.60453 | 8393 ft | 251 kts | 18° |
| 2026-05-04 18:18 | 36.83704 | -4.59194 | 8814 ft | 274 kts | 39° |
| 2026-05-04 18:18 | 36.85151 | -4.57587 | 9540 ft | 282 kts | 38° |
| 2026-05-04 18:18 | 36.86631 | -4.55941 | 10254 ft | 288 kts | 38° |
| 2026-05-04 18:18 | 36.88143 | -4.54266 | 10953 ft | 292 kts | 38° |
| 2026-05-04 18:19 | 36.91228 | -4.50857 | 12413 ft | 301 kts | 37° |
| 2026-05-04 18:19 | 36.92796 | -4.49125 | 13155 ft | 305 kts | 37° |
| 2026-05-04 18:19 | 36.94400 | -4.47355 | 13899 ft | 309 kts | 37° |
| 2026-05-04 18:20 | 36.96031 | -4.45543 | 14573 ft | 314 kts | 39° |
| 2026-05-04 18:20 | 36.97429 | -4.43450 | 15187 ft | 323 kts | 55° |
| 2026-05-04 18:20 | 36.98441 | -4.40860 | 15571 ft | 342 kts | 71° |
| 2026-05-04 18:20 | 36.98996 | -4.37861 | 15710 ft | 365 kts | 79° |
| 2026-05-04 18:21 | 36.99503 | -4.34641 | 15825 ft | 387 kts | 78° |
| 2026-05-04 18:21 | 37.00036 | -4.31308 | 16141 ft | 401 kts | 78° |
| 2026-05-04 18:21 | 37.00595 | -4.27844 | 16699 ft | 406 kts | 78° |
| 2026-05-04 18:21 | 37.01157 | -4.24397 | 17314 ft | 410 kts | 78° |
| 2026-05-04 18:22 | 37.01733 | -4.20863 | 17947 ft | 414 kts | 78° |
| 2026-05-04 18:22 | 37.02307 | -4.17339 | 18540 ft | 418 kts | 78° |
| 2026-05-04 18:22 | 37.02891 | -4.13758 | 19071 ft | 421 kts | 78° |
| 2026-05-04 18:22 | 37.03483 | -4.10130 | 19605 ft | 425 kts | 78° |
| 2026-05-04 18:23 | 37.04069 | -4.06529 | 20121 ft | 428 kts | 78° |
| 2026-05-04 18:23 | 37.04661 | -4.02866 | 20637 ft | 431 kts | 78° |
| 2026-05-04 18:23 | 37.05253 | -3.99161 | 21149 ft | 434 kts | 79° |
| 2026-05-04 18:23 | 37.05845 | -3.95439 | 21660 ft | 438 kts | 78° |
| 2026-05-04 18:24 | 37.06441 | -3.91700 | 22140 ft | 441 kts | 78° |
| 2026-05-04 18:24 | 37.07047 | -3.87906 | 22649 ft | 444 kts | 78° |
| 2026-05-04 18:24 | 37.07656 | -3.84084 | 23116 ft | 448 kts | 79° |
| 2026-05-04 18:24 | 37.08266 | -3.80238 | 23566 ft | 451 kts | 79° |
| 2026-05-04 18:25 | 37.08871 | -3.76401 | 23956 ft | 454 kts | 79° |
| 2026-05-04 18:25 | 37.09488 | -3.72490 | 24327 ft | 458 kts | 79° |
| 2026-05-04 18:25 | 37.10216 | -3.68577 | 24681 ft | 461 kts | 72° |
| 2026-05-04 18:25 | 37.11379 | -3.64872 | 25023 ft | 464 kts | 62° |
| 2026-05-04 18:26 | 37.13035 | -3.61342 | 25364 ft | 465 kts | 52° |
| 2026-05-04 18:26 | 37.15066 | -3.58255 | 25706 ft | 464 kts | 42° |
| 2026-05-04 18:26 | 37.17330 | -3.55352 | 26058 ft | 467 kts | 42° |
| 2026-05-04 18:26 | 37.19606 | -3.52421 | 26409 ft | 470 kts | 42° |
| 2026-05-04 18:27 | 37.21912 | -3.49441 | 26775 ft | 473 kts | 42° |
| 2026-05-04 18:27 | 37.24192 | -3.46488 | 27117 ft | 476 kts | 42° |
| 2026-05-04 18:27 | 37.26516 | -3.43472 | 27478 ft | 479 kts | 42° |
| 2026-05-04 18:27 | 37.28827 | -3.40472 | 27818 ft | 482 kts | 42° |
| 2026-05-04 18:28 | 37.31179 | -3.37421 | 28154 ft | 485 kts | 42° |
| 2026-05-04 18:28 | 37.33511 | -3.34393 | 28469 ft | 488 kts | 42° |
| 2026-05-04 18:28 | 37.35899 | -3.31284 | 28809 ft | 491 kts | 42° |
| 2026-05-04 18:28 | 37.38254 | -3.28215 | 29146 ft | 494 kts | 42° |
| 2026-05-04 18:29 | 37.40660 | -3.25081 | 29450 ft | 497 kts | 41° |
| 2026-05-04 18:29 | 37.43050 | -3.21967 | 29755 ft | 499 kts | 42° |
| 2026-05-04 18:29 | 37.45487 | -3.18785 | 30031 ft | 502 kts | 42° |
| 2026-05-04 18:29 | 37.47892 | -3.15642 | 30277 ft | 505 kts | 42° |
| 2026-05-04 18:30 | 37.52785 | -3.09243 | 30784 ft | 509 kts | 42° |
| 2026-05-04 18:30 | 37.55242 | -3.06027 | 31036 ft | 511 kts | 42° |
| 2026-05-04 18:30 | 37.57723 | -3.02768 | 31301 ft | 512 kts | 42° |
| 2026-05-04 18:31 | 37.60161 | -2.99559 | 31663 ft | 511 kts | 42° |
| 2026-05-04 18:31 | 37.62632 | -2.96306 | 31936 ft | 512 kts | 42° |
| 2026-05-04 18:31 | 37.65057 | -2.93111 | 31995 ft | 503 kts | 42° |
| 2026-05-04 18:32 | 37.69834 | -2.86801 | 32005 ft | 493 kts | 42° |
| 2026-05-04 18:32 | 37.74576 | -2.80556 | 32003 ft | 492 kts | 42° |
| 2026-05-04 18:33 | 37.79327 | -2.74293 | 32002 ft | 492 kts | 42° |
| 2026-05-04 18:33 | 37.84049 | -2.68031 | 32007 ft | 499 kts | 42° |
| 2026-05-04 18:34 | 37.88916 | -2.61560 | 32013 ft | 516 kts | 43° |
| 2026-05-04 18:34 | 37.93925 | -2.54904 | 32020 ft | 530 kts | 43° |
| 2026-05-04 18:35 | 37.99060 | -2.48057 | 32007 ft | 543 kts | 43° |
| 2026-05-04 18:35 | 38.01631 | -2.44621 | 32194 ft | 526 kts | 43° |
| 2026-05-04 18:35 | 38.04101 | -2.41304 | 32047 ft | 511 kts | 43° |
| 2026-05-04 18:35 | 38.06516 | -2.38063 | 31997 ft | 497 kts | 42° |
| 2026-05-04 18:36 | 38.08884 | -2.34887 | 32010 ft | 493 kts | 43° |
| 2026-05-04 18:36 | 38.13606 | -2.28562 | 32006 ft | 491 kts | 43° |
| 2026-05-04 18:37 | 38.18301 | -2.22248 | 32000 ft | 491 kts | 43° |
| 2026-05-04 18:37 | 38.22785 | -2.15689 | 31995 ft | 494 kts | 49° |
| 2026-05-04 18:38 | 38.27043 | -2.08801 | 31996 ft | 494 kts | 49° |
| 2026-05-04 18:38 | 38.31261 | -2.01985 | 31987 ft | 493 kts | 49° |
| 2026-05-04 18:39 | 38.35506 | -1.95121 | 31978 ft | 493 kts | 49° |
| 2026-05-04 18:39 | 38.39748 | -1.88233 | 31964 ft | 493 kts | 49° |
| 2026-05-04 18:40 | 38.43964 | -1.81365 | 31956 ft | 493 kts | 49° |
| 2026-05-04 18:40 | 38.48201 | -1.74450 | 31944 ft | 493 kts | 49° |
| 2026-05-04 18:41 | 38.51733 | -1.68692 | 31942 ft | 493 kts | 49° |
| 2026-05-04 18:41 | 38.56633 | -1.60686 | 31941 ft | 493 kts | 49° |
| 2026-05-04 18:42 | 38.60143 | -1.54913 | 31940 ft | 493 kts | 49° |
| 2026-05-04 18:42 | 38.64353 | -1.47988 | 31948 ft | 493 kts | 49° |
| 2026-05-04 18:43 | 38.68561 | -1.41064 | 31947 ft | 493 kts | 49° |
| 2026-05-04 18:43 | 38.72779 | -1.34099 | 31948 ft | 493 kts | 50° |
| 2026-05-04 18:44 | 38.76964 | -1.27180 | 31952 ft | 493 kts | 50° |
| 2026-05-04 18:44 | 38.81143 | -1.20255 | 31949 ft | 492 kts | 50° |
| 2026-05-04 18:45 | 38.85343 | -1.13294 | 31944 ft | 492 kts | 50° |
| 2026-05-04 18:45 | 38.89515 | -1.06344 | 31940 ft | 492 kts | 50° |
| 2026-05-04 18:46 | 38.93695 | -0.99367 | 31933 ft | 492 kts | 50° |
| 2026-05-04 18:46 | 38.97840 | -0.92439 | 31926 ft | 492 kts | 50° |
| 2026-05-04 18:47 | 39.02002 | -0.85463 | 31921 ft | 492 kts | 50° |
| 2026-05-04 18:47 | 39.06393 | -0.78759 | 31911 ft | 487 kts | 39° |
| 2026-05-04 18:48 | 39.10912 | -0.74454 | 31907 ft | 479 kts | 24° |
| 2026-05-04 18:48 | 39.13428 | -0.72633 | 31887 ft | 478 kts | 24° |
| 2026-05-04 18:49 | 39.19283 | -0.68543 | 31889 ft | 477 kts | 22° |
| 2026-05-04 18:49 | 39.25146 | -0.64584 | 31893 ft | 477 kts | 22° |
| 2026-05-04 18:50 | 39.31027 | -0.60553 | 31900 ft | 478 kts | 23° |
| 2026-05-04 18:50 | 39.36892 | -0.56463 | 31909 ft | 478 kts | 24° |
| 2026-05-04 18:51 | 39.42713 | -0.52394 | 31912 ft | 478 kts | 24° |
| 2026-05-04 18:51 | 39.48571 | -0.48295 | 31913 ft | 479 kts | 24° |
| 2026-05-04 18:52 | 39.54305 | -0.43833 | 31913 ft | 482 kts | 28° |
| 2026-05-04 18:52 | 39.59910 | -0.39012 | 31912 ft | 483 kts | 30° |
| 2026-05-04 18:53 | 39.65475 | -0.34216 | 31908 ft | 483 kts | 29° |
| 2026-05-04 18:53 | 39.71138 | -0.29467 | 31907 ft | 483 kts | 28° |
| 2026-05-04 18:54 | 39.76802 | -0.24771 | 31910 ft | 483 kts | 28° |
| 2026-05-04 18:54 | 39.82428 | -0.20079 | 31916 ft | 483 kts | 28° |
| 2026-05-04 18:55 | 39.88090 | -0.15320 | 31921 ft | 484 kts | 29° |
| 2026-05-04 18:55 | 39.96560 | -0.08180 | 31946 ft | 484 kts | 29° |
| 2026-05-04 18:56 | 40.02225 | -0.03412 | 31950 ft | 484 kts | 29° |
| 2026-05-04 18:56 | 40.07859 | 0.01349 | 31971 ft | 484 kts | 29° |
| 2026-05-04 18:57 | 40.13515 | 0.06162 | 31971 ft | 484 kts | 29° |
| 2026-05-04 18:57 | 40.19161 | 0.10974 | 31966 ft | 484 kts | 29° |
| 2026-05-04 18:58 | 40.25098 | 0.15003 | 31969 ft | 482 kts | 14° |
| 2026-05-04 18:58 | 40.31466 | 0.17447 | 32007 ft | 479 kts | 11° |
| 2026-05-04 18:59 | 40.37862 | 0.19841 | 31391 ft | 478 kts | 11° |
| 2026-05-04 18:59 | 40.41060 | 0.21041 | 30725 ft | 477 kts | 11° |
| 2026-05-04 18:59 | 40.44243 | 0.22240 | 30107 ft | 475 kts | 11° |
| 2026-05-04 19:00 | 40.47454 | 0.23454 | 29404 ft | 473 kts | 12° |
| 2026-05-04 19:00 | 40.50458 | 0.25060 | 28810 ft | 475 kts | 25° |
| 2026-05-04 19:00 | 40.53206 | 0.27490 | 28173 ft | 476 kts | 38° |
| 2026-05-04 19:00 | 40.55491 | 0.30606 | 27690 ft | 471 kts | 52° |
| 2026-05-04 19:01 | 40.57227 | 0.34191 | 27423 ft | 460 kts | 64° |
| 2026-05-04 19:01 | 40.58416 | 0.38060 | 26864 ft | 455 kts | 73° |
| 2026-05-04 19:01 | 40.59371 | 0.42003 | 26408 ft | 449 kts | 74° |
| 2026-05-04 19:01 | 40.60292 | 0.45900 | 26043 ft | 444 kts | 75° |
| 2026-05-04 19:02 | 40.61198 | 0.49782 | 25648 ft | 441 kts | 75° |
| 2026-05-04 19:02 | 40.62086 | 0.53601 | 25255 ft | 437 kts | 75° |
| 2026-05-04 19:02 | 40.62979 | 0.57442 | 24864 ft | 435 kts | 75° |
| 2026-05-04 19:02 | 40.63867 | 0.61252 | 24470 ft | 432 kts | 75° |
| 2026-05-04 19:03 | 40.64736 | 0.64978 | 24079 ft | 429 kts | 75° |
| 2026-05-04 19:03 | 40.65613 | 0.68728 | 23694 ft | 427 kts | 75° |
| 2026-05-04 19:03 | 40.66484 | 0.72459 | 23278 ft | 424 kts | 75° |
| 2026-05-04 19:03 | 40.67339 | 0.76133 | 22910 ft | 421 kts | 75° |
| 2026-05-04 19:04 | 40.68200 | 0.79839 | 22521 ft | 418 kts | 75° |
| 2026-05-04 19:04 | 40.69045 | 0.83485 | 22148 ft | 415 kts | 75° |
| 2026-05-04 19:04 | 40.69884 | 0.87113 | 21772 ft | 412 kts | 75° |
| 2026-05-04 19:04 | 40.70715 | 0.90712 | 21406 ft | 409 kts | 75° |
| 2026-05-04 19:05 | 40.71538 | 0.94284 | 21036 ft | 406 kts | 75° |
| 2026-05-04 19:05 | 40.72357 | 0.97842 | 20671 ft | 404 kts | 75° |
| 2026-05-04 19:05 | 40.73170 | 1.01372 | 20314 ft | 401 kts | 75° |
| 2026-05-04 19:05 | 40.73979 | 1.04879 | 19957 ft | 398 kts | 75° |
| 2026-05-04 19:06 | 40.74782 | 1.08356 | 19604 ft | 395 kts | 75° |
| 2026-05-04 19:06 | 40.75578 | 1.11811 | 19259 ft | 393 kts | 75° |
| 2026-05-04 19:06 | 40.76368 | 1.15249 | 18919 ft | 390 kts | 75° |
| 2026-05-04 19:06 | 40.77152 | 1.18669 | 18567 ft | 388 kts | 75° |
| 2026-05-04 19:07 | 40.77925 | 1.22058 | 18223 ft | 385 kts | 75° |
| 2026-05-04 19:07 | 40.78693 | 1.25431 | 17852 ft | 383 kts | 75° |
| 2026-05-04 19:07 | 40.79457 | 1.28788 | 17525 ft | 381 kts | 75° |
| 2026-05-04 19:07 | 40.80217 | 1.32122 | 17182 ft | 378 kts | 75° |
| 2026-05-04 19:08 | 40.80972 | 1.35438 | 16851 ft | 376 kts | 75° |
| 2026-05-04 19:08 | 40.81719 | 1.38733 | 16517 ft | 374 kts | 75° |
| 2026-05-04 19:08 | 40.82461 | 1.42017 | 16179 ft | 372 kts | 75° |
| 2026-05-04 19:08 | 40.83199 | 1.45280 | 15859 ft | 370 kts | 75° |
| 2026-05-04 19:09 | 40.83932 | 1.48526 | 15532 ft | 368 kts | 75° |
| 2026-05-04 19:09 | 40.84658 | 1.51761 | 15200 ft | 366 kts | 75° |
| 2026-05-04 19:09 | 40.85375 | 1.54973 | 14885 ft | 364 kts | 75° |
| 2026-05-04 19:09 | 40.86080 | 1.58130 | 14571 ft | 362 kts | 75° |
| 2026-05-04 19:10 | 40.86795 | 1.61319 | 14250 ft | 360 kts | 75° |